Birsk, Russia
Current Conditions -  °F | °C
As of 1:30 AM on Tuesday 25 Nov 2014 (Local Time) from UWUU Reporting Station
Clear Clear  
Wind Chill: -4°   Ceiling: Unl
Heat Index:   Visibility: 6mi
Dew Point:   Wind: 4mph
Humidity: 78%   Direction: 210°SSW
Pressure: 30.74"   Gusts: NA
Location:  55.42°N, 55.54°E
Report Text: UWUU 242030Z 21002MPS 170V290 CAVOK M15/M18 Q1041 820///60NOSIG RMK QFE769/1026
Loading
Personal Weather Stations






























Interactive Weather Map New forecast layout! Learn more

10-Day Weather Forecast

Advertisements
Track Severe Weather on mobile